Time;durP1;ratioP1;P1;durP2;ratioP2;P2;SDS_P1;SDS_P2;PMS_P1;PMS_P2;Temp;Humidity;BMP_temperature;BMP_pressure;BME280_temperature;BME280_humidity;BME280_pressure;Samples;Min_cycle;Max_cycle;Signal;HPM_P1;HPM_P2
2023/01/06 00:02:00;;;;;;;6.80;1.17;;;15.40;87.00;;;;;;7391520;19;20082;-81
2023/01/06 00:04:29;;;;;;;4.85;1.33;;;15.40;87.00;;;;;;7371894;19;20007;-81
2023/01/06 00:06:58;;;;;;;5.32;1.15;;;15.40;87.30;;;;;;7371257;19;20020;-81
2023/01/06 00:09:26;;;;;;;5.43;1.20;;;15.40;87.00;;;;;;7370878;19;20019;-81
2023/01/06 00:11:55;;;;;;;5.13;1.00;;;15.40;87.10;;;;;;7370448;19;20119;-81
2023/01/06 00:14:24;;;;;;;3.22;0.95;;;15.40;87.10;;;;;;7371306;19;20023;-80
2023/01/06 00:16:53;;;;;;;6.40;1.20;;;15.40;87.30;;;;;;7398105;19;20035;-80
2023/01/06 00:19:24;;;;;;;8.00;1.00;;;15.40;86.90;;;;;;7376264;19;20461;-80
2023/01/06 00:21:53;;;;;;;3.33;1.08;;;15.40;87.20;;;;;;7373547;19;20040;-81
2023/01/06 00:24:21;;;;;;;3.10;0.88;;;15.20;87.50;;;;;;7376556;19;20027;-80
2023/01/06 00:26:50;;;;;;;4.00;1.05;;;15.10;87.60;;;;;;7372432;19;20343;-80
2023/01/06 00:29:19;;;;;;;2.67;1.35;;;15.20;87.90;;;;;;7375857;19;20010;-81
2023/01/06 00:31:47;;;;;;;5.50;1.17;;;15.30;88.00;;;;;;7397694;19;20074;-81
2023/01/06 00:34:17;;;;;;;5.78;1.00;;;15.20;87.70;;;;;;7375193;19;20010;-79
2023/01/06 00:36:48;;;;;;;5.00;1.02;;;15.30;87.80;;;;;;7375015;19;20106;-79
2023/01/06 00:39:17;;;;;;;3.30;1.30;;;15.30;87.70;;;;;;7373311;19;20014;-80
2023/01/06 00:44:27;;;;;;;4.68;1.20;;;15.30;87.50;;;;;;7372417;19;20028;-80
2023/01/06 00:46:55;;;;;;;3.45;1.00;;;15.20;87.80;;;;;;7393096;19;20031;-80
2023/01/06 00:49:24;;;;;;;2.55;1.10;;;15.20;88.00;;;;;;7371346;19;20513;-80
2023/01/06 00:51:56;;;;;;;4.70;1.23;;;15.20;88.00;;;;;;7371352;19;20026;-80
2023/01/06 00:54:25;;;;;;;1.95;0.90;;;15.30;88.10;;;;;;7370641;19;20024;-80
2023/01/06 00:56:55;;;;;;;2.90;0.90;;;15.30;88.00;;;;;;7369459;19;20017;-80
2023/01/06 00:59:26;;;;;;;5.95;1.17;;;15.10;88.10;;;;;;7370005;19;20018;-80
2023/01/06 01:01:58;;;;;;;5.28;1.20;;;15.10;88.20;;;;;;7390959;19;20078;-80
2023/01/06 01:04:28;;;;;;;3.58;0.90;;;15.20;88.50;;;;;;7370568;19;20035;-80
2023/01/06 01:06:59;;;;;;;6.90;1.08;;;15.20;88.50;;;;;;7373615;19;20032;-80
2023/01/06 01:09:31;;;;;;;5.25;1.17;;;15.20;88.40;;;;;;7378083;19;20048;-80
2023/01/06 01:12:13;;;;;;;3.08;1.23;;;15.30;89.10;;;;;;7378527;19;20487;-80
2023/01/06 01:14:45;;;;;;;3.75;1.17;;;15.30;88.50;;;;;;7379443;19;20041;-82
2023/01/06 01:17:16;;;;;;;3.40;1.00;;;15.20;88.40;;;;;;7384213;19;20010;-81
2023/01/06 01:19:45;;;;;;;3.05;0.90;;;15.20;88.60;;;;;;7394100;19;20082;-82
2023/01/06 01:22:16;;;;;;;5.45;0.80;;;15.20;88.80;;;;;;7370460;19;20027;-80
2023/01/06 01:24:45;;;;;;;;;;;15.20;88.80;;;;;;7372385;19;20014;-79
2023/01/06 01:27:14;;;;;;;4.40;1.20;;;15.30;88.90;;;;;;7371850;19;20207;-80
2023/01/06 01:29:43;;;;;;;3.38;0.98;;;15.20;88.80;;;;;;7370225;19;20086;-80
2023/01/06 01:32:12;;;;;;;3.17;1.23;;;15.20;88.90;;;;;;7390285;19;20029;-79
2023/01/06 01:34:41;;;;;;;3.70;1.10;;;15.30;88.90;;;;;;7371171;19;20031;-80
2023/01/06 01:37:10;;;;;;;2.92;1.02;;;15.10;88.60;;;;;;7370695;19;20014;-79
2023/01/06 01:39:41;;;;;;;3.20;1.00;;;15.10;89.30;;;;;;7371859;19;20407;-80
2023/01/06 01:42:18;;;;;;;5.38;1.05;;;15.10;89.20;;;;;;7370955;19;20074;-80
2023/01/06 01:45:00;;;;;;;1.60;0.68;;;15.20;89.20;;;;;;7370643;19;20010;-80
2023/01/06 01:47:46;;;;;;;1.38;0.73;;;15.10;88.90;;;;;;7372827;19;20472;-80
2023/01/06 01:50:28;;;;;;;1.30;0.88;;;15.00;88.90;;;;;;7386214;19;20007;-78
2023/01/06 01:53:00;;;;;;;6.30;1.23;;;15.00;89.10;;;;;;7401516;19;20532;-80
2023/01/06 01:55:33;;;;;;;1.38;0.73;;;14.90;89.70;;;;;;7378253;19;20122;-79
2023/01/06 01:58:11;;;;;;;5.25;1.02;;;14.90;89.70;;;;;;7373074;19;20026;-79
2023/01/06 02:00:43;;;;;;;0.68;0.63;;;14.90;89.70;;;;;;7371879;19;20085;-80
2023/01/06 02:03:14;;;;;;;3.13;1.20;;;14.60;90.50;;;;;;7374272;19;20024;-79
2023/01/06 02:05:47;;;;;;;1.08;0.85;;;14.60;90.50;;;;;;7373016;19;20022;-79
2023/01/06 02:08:24;;;;;;;3.75;0.90;;;14.80;90.40;;;;;;7367445;19;20044;-79
2023/01/06 02:10:56;;;;;;;2.13;1.05;;;14.60;90.60;;;;;;7390010;19;20014;-80
2023/01/06 02:13:25;;;;;;;3.13;0.88;;;14.60;90.60;;;;;;7367555;19;20018;-80
2023/01/06 02:16:01;;;;;;;4.50;1.20;;;14.70;90.60;;;;;;7367688;19;20047;-80
2023/01/06 02:18:50;;;;;;;2.30;1.33;;;14.60;90.60;;;;;;7369293;19;20093;-80
2023/01/06 02:21:33;;;;;;;4.93;1.58;;;14.60;90.70;;;;;;7369000;19;20081;-79
2023/01/06 02:24:41;;;;;;;6.25;1.50;;;14.70;90.60;;;;;;7368421;19;20014;-79
2023/01/06 02:27:48;;;;;;;2.85;1.10;;;14.70;90.60;;;;;;7366219;19;20018;-79
2023/01/06 02:30:47;;;;;;;4.03;1.30;;;14.90;90.70;;;;;;7368510;19;20018;-79
2023/01/06 02:33:29;;;;;;;2.67;1.08;;;14.80;90.50;;;;;;7367723;19;20530;-80
2023/01/06 02:36:28;;;;;;;5.13;1.30;;;14.80;90.40;;;;;;7368154;19;20028;-80
2023/01/06 02:39:14;;;;;;;2.67;1.23;;;14.80;90.50;;;;;;7367461;19;20095;-80
2023/01/06 02:41:45;;;;;;;5.63;1.55;;;14.90;90.50;;;;;;7368727;19;20017;-80
2023/01/06 02:44:22;;;;;;;3.63;1.15;;;14.90;90.40;;;;;;7388110;19;20018;-79
2023/01/06 02:47:12;;;;;;;9.10;1.40;;;14.90;90.20;;;;;;7389304;19;20116;-80
2023/01/06 02:49:49;;;;;;;2.75;1.40;;;14.90;90.70;;;;;;7365700;19;20098;-79
2023/01/06 02:52:25;;;;;;;3.13;1.33;;;14.80;90.30;;;;;;7366999;19;20010;-80
2023/01/06 02:55:00;;;;;;;2.67;1.00;;;14.70;90.30;;;;;;7368596;19;20570;-80
2023/01/06 02:57:38;;;;;;;4.88;1.23;;;14.90;90.70;;;;;;7367389;19;20010;-80
2023/01/06 03:00:14;;;;;;;5.38;1.70;;;15.00;90.20;;;;;;7367828;19;20069;-79
2023/01/06 03:02:47;;;;;;;4.93;1.90;;;15.00;90.10;;;;;;7366032;19;20031;-79
2023/01/06 03:05:19;;;;;;;11.80;1.65;;;15.00;90.00;;;;;;7366472;19;20735;-79
2023/01/06 03:07:49;;;;;;;4.88;1.25;;;15.00;90.00;;;;;;7388115;19;20452;-80
2023/01/06 03:10:21;;;;;;;2.75;1.20;;;15.10;90.00;;;;;;7366944;19;20022;-80
2023/01/06 03:12:54;;;;;;;1.77;0.98;;;15.10;90.00;;;;;;7367367;19;20003;-80
2023/01/06 03:15:25;;;;;;;3.25;0.90;;;15.10;89.80;;;;;;7367893;19;20019;-80
2023/01/06 03:17:54;;;;;;;2.17;1.10;;;15.10;89.80;;;;;;7366440;19;20026;-81
2023/01/06 03:20:25;;;;;;;6.03;1.20;;;15.10;89.70;;;;;;7366401;19;20031;-81
2023/01/06 03:22:54;;;;;;;5.47;1.33;;;14.80;90.10;;;;;;7386647;19;20035;-81
2023/01/06 03:25:24;;;;;;;1.63;1.02;;;14.90;90.10;;;;;;7367705;19;20011;-80
2023/01/06 03:27:53;;;;;;;1.27;0.90;;;15.00;90.10;;;;;;7366053;19;20162;-80
2023/01/06 03:30:21;;;;;;;1.45;1.02;;;15.00;90.00;;;;;;7365891;19;20014;-80
2023/01/06 03:32:58;;;;;;;4.03;0.93;;;15.00;90.00;;;;;;7365165;19;20517;-80
2023/01/06 03:35:41;;;;;;;3.35;0.88;;;15.00;90.00;;;;;;7365012;19;20086;-80
2023/01/06 03:38:20;;;;;;;3.40;1.02;;;14.90;90.20;;;;;;7387618;19;20326;-80
2023/01/06 03:40:59;;;;;;;1.05;0.80;;;14.90;90.20;;;;;;7365230;19;20014;-80
2023/01/06 03:43:33;;;;;;;1.90;1.00;;;15.00;90.20;;;;;;7363470;19;20337;-81
2023/01/06 03:46:17;;;;;;;2.13;1.00;;;15.10;90.10;;;;;;7364061;19;20018;-80
2023/01/06 03:48:57;;;;;;;1.73;0.90;;;15.10;90.10;;;;;;7369637;19;20094;-80
2023/01/06 03:51:39;;;;;;;4.30;1.38;;;15.10;90.10;;;;;;7364728;19;20019;-80
2023/01/06 03:54:14;;;;;;;1.30;1.10;;;15.10;90.10;;;;;;7366302;19;20035;-80
2023/01/06 03:56:46;;;;;;;3.50;0.80;;;15.10;90.10;;;;;;7364784;19;20035;-79
2023/01/06 03:59:20;;;;;;;2.90;0.90;;;15.00;90.30;;;;;;7369758;19;20023;-80
2023/01/06 04:01:50;;;;;;;1.02;0.73;;;15.10;90.20;;;;;;7392862;19;20011;-80
2023/01/06 04:04:21;;;;;;;1.95;1.00;;;15.00;90.40;;;;;;7376403;19;20011;-80
2023/01/06 04:06:53;;;;;;;3.97;1.70;;;14.90;90.50;;;;;;7376477;19;20014;-80
2023/01/06 04:09:22;;;;;;;3.20;1.38;;;14.90;90.50;;;;;;7377191;19;20011;-80
2023/01/06 04:14:32;;;;;;;5.53;1.58;;;14.80;90.70;;;;;;7379452;19;20022;-80
2023/01/06 04:17:00;;;;;;;6.90;1.58;;;14.80;90.60;;;;;;7403794;19;20007;-81
2023/01/06 04:19:29;;;;;;;3.55;1.80;;;14.80;90.70;;;;;;7379748;19;20802;-80
2023/01/06 04:22:00;;;;;;;2.85;1.65;;;14.80;90.70;;;;;;7378376;19;20482;-81
2023/01/06 04:24:29;;;;;;;2.90;1.40;;;14.60;90.90;;;;;;7378024;19;20067;-81
2023/01/06 04:26:58;;;;;;;2.45;1.30;;;14.60;90.90;;;;;;7376592;19;20018;-81
2023/01/06 04:29:26;;;;;;;2.92;0.90;;;14.60;91.00;;;;;;7376758;19;20022;-81
2023/01/06 04:31:55;;;;;;;7.30;1.40;;;14.70;91.00;;;;;;7394633;19;20031;-81
2023/01/06 04:34:24;;;;;;;4.00;1.40;;;14.70;90.90;;;;;;7373728;19;20073;-81
2023/01/06 04:36:53;;;;;;;1.00;0.80;;;14.80;90.80;;;;;;7371637;19;20810;-81
2023/01/06 04:39:24;;;;;;;1.65;0.95;;;14.60;91.00;;;;;;7371124;19;20097;-81
2023/01/06 04:41:53;;;;;;;2.75;1.00;;;14.70;91.00;;;;;;7372856;19;20031;-81
2023/01/06 04:44:21;;;;;;;1.98;0.90;;;14.70;90.90;;;;;;7368316;19;20014;-80
2023/01/06 04:46:50;;;;;;;3.67;0.95;;;14.80;90.90;;;;;;7392634;19;20086;-81
2023/01/06 04:49:19;;;;;;;4.45;1.10;;;14.90;90.90;;;;;;7369708;19;20018;-80
2023/01/06 04:51:48;;;;;;;3.25;1.20;;;14.90;90.80;;;;;;7370462;19;20450;-80
2023/01/06 04:54:18;;;;;;;5.82;1.13;;;14.90;90.70;;;;;;7370943;19;20014;-80
2023/01/06 04:56:49;;;;;;;3.75;1.10;;;14.90;90.80;;;;;;7368511;19;20015;-80
2023/01/06 04:59:18;;;;;;;4.75;0.95;;;14.90;90.90;;;;;;7369082;19;20032;-80
2023/01/06 05:01:47;;;;;;;1.67;1.10;;;14.90;90.80;;;;;;7391056;19;20024;-80
2023/01/06 05:04:15;;;;;;;6.03;1.15;;;14.90;90.70;;;;;;7368899;19;20074;-80
2023/01/06 05:06:44;;;;;;;2.35;1.13;;;14.80;90.70;;;;;;7371700;19;20031;-80
2023/01/06 05:09:13;;;;;;;3.13;1.20;;;14.90;90.90;;;;;;7369090;19;20090;-80
2023/01/06 05:11:42;;;;;;;1.83;0.93;;;14.90;90.80;;;;;;7370369;19;20068;-80
2023/01/06 05:14:13;;;;;;;11.00;1.50;;;14.90;90.90;;;;;;7390607;19;20452;-80
2023/01/06 05:16:43;;;;;;;;;;;14.80;91.00;;;;;;7370521;19;20303;-80
2023/01/06 05:19:15;;;;;;;3.63;1.10;;;14.80;91.00;;;;;;7371404;19;19923;-80
2023/01/06 05:21:43;;;;;;;3.67;1.00;;;14.90;90.90;;;;;;7370223;19;20485;-80
2023/01/06 05:24:12;;;;;;;2.53;1.00;;;14.90;91.00;;;;;;7369616;19;20013;-80
2023/01/06 05:26:41;;;;;;;3.38;1.02;;;14.90;90.90;;;;;;7369143;19;20650;-80
2023/01/06 05:29:14;;;;;;;3.08;1.33;;;15.00;90.90;;;;;;7390523;19;20474;-81
2023/01/06 05:31:43;;;;;;;3.80;1.00;;;15.00;90.80;;;;;;7370879;19;20014;-81
2023/01/06 05:34:12;;;;;;;2.88;0.98;;;14.90;90.80;;;;;;7371813;19;20136;-80
2023/01/06 05:36:41;;;;;;;4.45;1.00;;;14.90;90.80;;;;;;7369569;19;20114;-81
2023/01/06 05:39:09;;;;;;;1.50;1.20;;;14.90;90.80;;;;;;7370187;19;20023;-80
2023/01/06 05:41:38;;;;;;;2.75;1.00;;;14.80;90.90;;;;;;7370680;19;20010;-80
2023/01/06 05:44:07;;;;;;;1.75;1.20;;;14.80;90.90;;;;;;7390741;19;20048;-81
2023/01/06 05:46:38;;;;;;;1.42;0.82;;;14.70;90.80;;;;;;7369969;19;20044;-81
2023/01/06 05:49:07;;;;;;;;;;;14.70;90.90;;;;;;7370481;19;20028;-81
2023/01/06 05:51:36;;;;;;;1.70;1.02;;;14.70;91.00;;;;;;7370506;19;19933;-79
2023/01/06 05:54:08;;;;;;;4.18;1.42;;;14.70;90.90;;;;;;7368167;19;20031;-80
2023/01/06 05:56:37;;;;;;;1.52;1.02;;;14.70;91.10;;;;;;7368694;19;20015;-80
2023/01/06 05:59:06;;;;;;;1.35;1.20;;;14.70;91.10;;;;;;7391448;19;20728;-80
2023/01/06 06:01:44;;;;;;;1.80;1.70;;;14.70;91.10;;;;;;7368585;19;20073;-80
2023/01/06 06:04:14;;;;;;;3.00;0.95;;;14.60;91.20;;;;;;7368039;19;20465;-81
2023/01/06 06:06:42;;;;;;;2.60;1.10;;;14.70;91.10;;;;;;7367469;19;20046;-78
2023/01/06 06:09:12;;;;;;;2.53;1.30;;;14.80;91.00;;;;;;7367769;19;20505;-79
2023/01/06 06:11:41;;;;;;;2.03;1.10;;;14.90;91.00;;;;;;7367814;19;20383;-79
2023/01/06 06:14:11;;;;;;;3.30;1.45;;;14.90;90.90;;;;;;7388335;19;20110;-81
2023/01/06 06:16:42;;;;;;;3.72;1.02;;;14.90;90.80;;;;;;7369091;19;20018;-81
2023/01/06 06:19:14;;;;;;;3.67;1.20;;;14.80;90.80;;;;;;7367548;19;20081;-81
2023/01/06 06:21:43;;;;;;;2.72;1.15;;;14.90;90.80;;;;;;7368109;19;20022;-81
2023/01/06 06:24:12;;;;;;;6.05;1.30;;;14.90;91.20;;;;;;7365355;19;20078;-80
2023/01/06 06:26:40;;;;;;;6.93;1.15;;;14.80;90.80;;;;;;7367255;19;20385;-82
2023/01/06 06:29:13;;;;;;;5.88;1.30;;;14.80;90.70;;;;;;7390783;19;20782;-81
2023/01/06 06:31:44;;;;;;;2.20;1.35;;;14.70;90.90;;;;;;7369426;19;20082;-81
2023/01/06 06:34:15;;;;;;;1.90;1.30;;;14.70;91.40;;;;;;7367794;19;20074;-80
2023/01/06 06:36:43;;;;;;;4.13;1.47;;;14.60;91.30;;;;;;7372220;19;20046;-81
2023/01/06 06:39:12;;;;;;;1.88;1.30;;;14.80;91.10;;;;;;7374988;19;20239;-80
2023/01/06 06:41:41;;;;;;;3.35;0.90;;;14.80;90.90;;;;;;7368739;19;20014;-80
2023/01/06 06:44:09;;;;;;;2.80;0.93;;;14.90;90.80;;;;;;7395462;19;20019;-80
2023/01/06 06:46:38;;;;;;;1.67;1.15;;;15.00;90.80;;;;;;7370710;19;20022;-80
2023/01/06 06:49:10;;;;;;;5.53;1.13;;;15.00;90.70;;;;;;7369710;19;20018;-81
2023/01/06 06:51:38;;;;;;;;;;;15.00;90.80;;;;;;7370793;19;20033;-81
2023/01/06 06:54:07;;;;;;;3.45;1.10;;;15.10;90.70;;;;;;7368348;19;19918;-80
2023/01/06 06:56:36;;;;;;;3.40;1.33;;;15.10;90.60;;;;;;7369580;19;20126;-80
2023/01/06 06:59:05;;;;;;;2.70;1.55;;;15.20;90.70;;;;;;7389988;19;20031;-79
2023/01/06 07:01:33;;;;;;;3.92;1.13;;;15.10;90.60;;;;;;7367841;19;20014;-80
2023/01/06 07:04:02;;;;;;;4.13;1.20;;;15.20;90.60;;;;;;7368030;19;20133;-81
2023/01/06 07:06:37;;;;;;;1.73;1.23;;;15.20;90.60;;;;;;7367699;19;20024;-80
2023/01/06 07:09:06;;;;;;;2.20;1.30;;;15.20;90.60;;;;;;7367127;19;20015;-80
2023/01/06 07:11:34;;;;;;;2.63;1.20;;;15.20;90.60;;;;;;7368015;19;20023;-81
2023/01/06 07:14:03;;;;;;;2.35;1.42;;;15.20;90.60;;;;;;7388314;19;20102;-81
2023/01/06 07:16:32;;;;;;;1.70;1.17;;;15.20;90.60;;;;;;7365953;19;20010;-80
2023/01/06 07:19:01;;;;;;;3.88;1.30;;;15.00;91.20;;;;;;7365659;19;20513;-81
2023/01/06 07:21:29;;;;;;;4.68;1.13;;;15.00;90.80;;;;;;7368033;19;20011;-80
2023/01/06 07:24:01;;;;;;;2.53;1.48;;;14.90;91.10;;;;;;7367982;19;20426;-80
2023/01/06 07:26:29;;;;;;;;;;;14.90;91.10;;;;;;7366613;19;20045;-80
2023/01/06 07:28:58;;;;;;;3.20;1.52;;;15.10;91.10;;;;;;7387320;19;19955;-81
2023/01/06 07:31:27;;;;;;;2.30;1.55;;;15.00;91.00;;;;;;7364724;19;20077;-80
2023/01/06 07:33:56;;;;;;;2.85;1.83;;;15.00;91.00;;;;;;7365546;19;20056;-81
2023/01/06 07:36:24;;;;;;;2.30;1.52;;;15.10;90.90;;;;;;7369529;19;20082;-81
2023/01/06 07:38:53;;;;;;;2.40;2.10;;;15.10;91.00;;;;;;7373325;19;20093;-81
2023/01/06 07:41:25;;;;;;;3.25;1.88;;;15.10;91.00;;;;;;7373744;19;20617;-81
2023/01/06 07:43:53;;;;;;;;;;;15.00;91.00;;;;;;7396792;19;20014;-81
2023/01/06 07:46:22;;;;;;;5.15;2.15;;;15.10;91.10;;;;;;7372459;19;20253;-80
2023/01/06 07:48:51;;;;;;;8.73;1.83;;;15.10;91.00;;;;;;7379067;19;20058;-82
2023/01/06 07:51:20;;;;;;;3.88;1.77;;;15.10;90.90;;;;;;7383890;19;20010;-79
2023/01/06 07:53:49;;;;;;;3.92;1.98;;;15.00;90.90;;;;;;7370794;19;20019;-81
2023/01/06 07:56:17;;;;;;;6.55;2.25;;;15.00;91.00;;;;;;7373326;19;20071;-87
2023/01/06 07:58:49;;;;;;;7.55;2.40;;;15.00;91.10;;;;;;7404530;19;20014;-86
2023/01/06 08:01:18;;;;;;;2.70;1.90;;;15.00;91.00;;;;;;7381527;19;20053;-87
2023/01/06 08:03:47;;;;;;;3.83;2.08;;;15.10;91.00;;;;;;7390352;19;20034;-89
2023/01/06 08:06:16;;;;;;;4.22;1.85;;;15.10;91.00;;;;;;7380932;19;20006;-89
2023/01/06 08:08:44;;;;;;;6.75;3.10;;;15.20;91.00;;;;;;7383057;19;20042;-89
2023/01/06 08:11:14;;;;;;;5.63;2.75;;;15.20;90.90;;;;;;7401985;19;20448;-86
2023/01/06 08:13:43;;;;;;;8.30;2.88;;;15.30;90.90;;;;;;7377908;19;20018;-88
2023/01/06 08:16:15;;;;;;;5.18;3.13;;;15.30;90.80;;;;;;7381044;19;20014;-90
2023/01/06 08:18:44;;;;;;;2.88;2.20;;;15.30;90.80;;;;;;7380982;19;20082;-87
2023/01/06 08:21:13;;;;;;;4.43;1.98;;;15.30;90.80;;;;;;7384865;19;20006;-91
2023/01/06 08:23:44;;;;;;;3.78;1.98;;;15.10;90.90;;;;;;7384319;19;20015;-88
2023/01/06 08:26:15;;;;;;;2.45;2.00;;;15.10;91.00;;;;;;7404598;19;20086;-89
2023/01/06 08:28:46;;;;;;;5.85;2.20;;;15.10;91.10;;;;;;7388574;19;20037;-88
2023/01/06 08:31:19;;;;;;;5.05;2.15;;;15.10;91.10;;;;;;7388288;19;20037;-87
2023/01/06 08:33:49;;;;;;;3.45;2.30;;;15.10;91.10;;;;;;7389219;19;20018;-90
2023/01/06 08:36:22;;;;;;;3.28;1.90;;;15.20;91.10;;;;;;7384378;19;20059;-86
2023/01/06 08:38:51;;;;;;;2.90;1.90;;;15.20;91.00;;;;;;7389914;19;20014;-86
2023/01/06 08:41:20;;;;;;;5.57;2.08;;;15.30;91.00;;;;;;7379479;19;20014;-88
2023/01/06 08:43:50;;;;;;;3.88;2.08;;;15.40;90.90;;;;;;7398428;19;20022;-90
2023/01/06 08:46:22;;;;;;;4.80;2.40;;;15.40;90.80;;;;;;7379758;19;20018;-89
2023/01/06 08:48:51;;;;;;;3.30;2.40;;;15.30;90.80;;;;;;7375105;19;20033;-89
2023/01/06 08:51:23;;;;;;;7.53;2.15;;;15.40;90.80;;;;;;7379080;19;20014;-88
2023/01/06 08:53:53;;;;;;;8.30;2.80;;;15.40;90.90;;;;;;7378415;19;20018;-89
2023/01/06 08:56:23;;;;;;;4.63;3.22;;;15.30;90.90;;;;;;7381071;19;20018;-89
2023/01/06 08:58:54;;;;;;;5.88;2.88;;;15.30;90.90;;;;;;7418428;19;20038;-89
2023/01/06 09:01:27;;;;;;;6.43;2.70;;;15.30;91.00;;;;;;7382020;19;20014;-84
2023/01/06 09:03:57;;;;;;;4.63;2.70;;;15.30;91.10;;;;;;7383918;19;20353;-85
2023/01/06 09:06:26;;;;;;;5.93;2.80;;;15.20;91.20;;;;;;7379219;19;20007;-83
2023/01/06 09:08:55;;;;;;;14.68;3.00;;;15.10;91.40;;;;;;7378438;19;20433;-89
2023/01/06 09:11:25;;;;;;;5.70;3.00;;;15.20;91.50;;;;;;7383399;19;20244;-90
2023/01/06 09:13:54;;;;;;;7.70;2.65;;;15.20;91.50;;;;;;7410820;19;20022;-89
2023/01/06 09:16:26;;;;;;;6.78;2.83;;;15.20;91.40;;;;;;7385379;19;20022;-90
2023/01/06 09:18:55;;;;;;;4.47;2.65;;;15.10;91.40;;;;;;7384950;19;20010;-89
2023/01/06 09:21:25;;;;;;;4.63;2.92;;;15.20;91.40;;;;;;7389816;19;20324;-85
2023/01/06 09:23:55;;;;;;;6.30;3.30;;;15.20;91.50;;;;;;7390211;19;20006;-87
2023/01/06 09:26:24;;;;;;;5.57;2.83;;;15.20;91.40;;;;;;7387149;19;20436;-88
2023/01/06 09:28:53;;;;;;;4.95;2.80;;;15.30;91.40;;;;;;7403848;19;20019;-80
2023/01/06 09:31:21;;;;;;;4.75;2.72;;;15.30;91.30;;;;;;7375344;19;20014;-78
2023/01/06 09:33:53;;;;;;;7.60;4.00;;;14.90;91.50;;;;;;7375245;19;20039;-80
2023/01/06 09:36:22;;;;;;;7.63;2.75;;;14.90;91.80;;;;;;7373118;19;20500;-79
2023/01/06 09:38:50;;;;;;;7.95;2.80;;;14.80;92.00;;;;;;7371589;19;20278;-80
2023/01/06 09:41:44;;;;;;;8.65;2.50;;;15.00;92.00;;;;;;7373139;19;20031;-80
2023/01/06 09:44:17;;;;;;;3.33;2.13;;;14.90;92.00;;;;;;7393924;19;20014;-79
2023/01/06 09:46:50;;;;;;;4.43;2.63;;;15.10;91.90;;;;;;7371103;19;20018;-79
2023/01/06 09:49:29;;;;;;;5.03;2.80;;;15.10;91.70;;;;;;7370007;19;20010;-83
2023/01/06 09:52:03;;;;;;;6.00;2.95;;;15.20;91.70;;;;;;7372821;19;20044;-80
2023/01/06 09:54:35;;;;;;;5.90;3.00;;;15.20;91.60;;;;;;7373605;19;20018;-79
2023/01/06 09:57:08;;;;;;;5.95;2.67;;;15.30;91.60;;;;;;7372479;19;20018;-80
2023/01/06 09:59:51;;;;;;;6.70;2.70;;;15.10;91.50;;;;;;7370981;19;20081;-80
2023/01/06 10:02:28;;;;;;;6.60;2.28;;;15.00;92.00;;;;;;7371292;19;20109;-78
2023/01/06 10:05:00;;;;;;;5.70;2.50;;;15.10;91.80;;;;;;7391034;19;20014;-78
2023/01/06 10:07:31;;;;;;;;;;;15.20;91.60;;;;;;7369659;19;20698;-80
2023/01/06 10:10:08;;;;;;;5.53;2.30;;;15.30;91.50;;;;;;7371042;19;19923;-77
2023/01/06 10:12:51;;;;;;;3.95;2.00;;;15.20;91.40;;;;;;7369290;19;20342;-77
2023/01/06 10:15:26;;;;;;;6.75;2.60;;;15.30;91.40;;;;;;7372068;19;20014;-79
2023/01/06 10:18:07;;;;;;;3.88;2.47;;;15.20;91.40;;;;;;7371642;19;20415;-80
2023/01/06 10:21:02;;;;;;;3.95;2.45;;;15.30;91.50;;;;;;7371542;19;20020;-80
2023/01/06 10:23:59;;;;;;;3.30;2.08;;;15.30;91.40;;;;;;7369566;19;20379;-80
2023/01/06 10:26:32;;;;;;;4.82;2.50;;;15.40;91.30;;;;;;7371414;19;20374;-79
2023/01/06 10:29:06;;;;;;;8.57;3.10;;;15.40;91.10;;;;;;7389964;19;20516;-79
2023/01/06 10:31:38;;;;;;;5.28;2.78;;;15.40;91.10;;;;;;7366562;19;20125;-79
2023/01/06 10:34:18;;;;;;;5.50;3.55;;;15.30;91.20;;;;;;7366250;19;20078;-79
2023/01/06 10:36:54;;;;;;;7.75;3.03;;;15.40;91.20;;;;;;7368034;19;20113;-79
2023/01/06 10:39:25;;;;;;;4.05;3.28;;;15.30;91.50;;;;;;7367211;19;20025;-81
2023/01/06 10:44:44;;;;;;;3.05;2.22;;;15.40;91.50;;;;;;7365743;19;20018;-80
2023/01/06 10:47:22;;;;;;;5.88;2.72;;;15.30;91.20;;;;;;7389471;19;20019;-79
2023/01/06 10:49:51;;;;;;;10.10;2.78;;;15.30;91.20;;;;;;7365982;19;20014;-81
2023/01/06 10:52:24;;;;;;;4.47;2.53;;;15.40;91.20;;;;;;7367097;19;20018;-81
2023/01/06 10:55:01;;;;;;;9.02;3.00;;;15.40;91.20;;;;;;7367418;19;20031;-81
2023/01/06 10:57:34;;;;;;;9.27;3.13;;;15.50;91.20;;;;;;7367293;19;20007;-80
2023/01/06 11:00:11;;;;;;;14.48;3.80;;;15.30;91.50;;;;;;7365815;19;20098;-80
2023/01/06 11:02:43;;;;;;;8.15;3.95;;;15.50;91.70;;;;;;7367214;19;20028;-79
2023/01/06 11:05:15;;;;;;;4.15;2.95;;;15.60;91.40;;;;;;7387449;19;20022;-78
2023/01/06 11:07:54;;;;;;;8.65;2.60;;;15.50;91.20;;;;;;7369915;19;20021;-81
2023/01/06 11:10:31;;;;;;;3.70;2.42;;;15.30;91.40;;;;;;7367820;19;20106;-83
2023/01/06 11:13:03;;;;;;;7.40;2.88;;;15.30;91.50;;;;;;7369292;19;20031;-78
2023/01/06 11:15:39;;;;;;;13.48;2.53;;;15.40;91.50;;;;;;7365883;19;20406;-78
2023/01/06 11:18:20;;;;;;;7.50;2.78;;;15.30;91.60;;;;;;7361115;19;20077;-78
2023/01/06 11:21:07;;;;;;;5.03;3.00;;;15.40;91.50;;;;;;7367791;19;20085;-79
2023/01/06 11:23:39;;;;;;;5.07;2.97;;;15.60;91.20;;;;;;7369016;19;20011;-78
2023/01/06 11:26:18;;;;;;;5.57;2.90;;;15.50;91.20;;;;;;7388723;19;20058;-82
2023/01/06 11:28:48;;;;;;;4.30;2.58;;;15.40;91.40;;;;;;7367304;19;20017;-82
2023/01/06 11:31:26;;;;;;;8.73;3.40;;;15.50;91.30;;;;;;7368792;19;20011;-81
2023/01/06 11:33:58;;;;;;;5.57;2.70;;;15.40;91.20;;;;;;7369064;19;20025;-86
2023/01/06 11:36:29;;;;;;;6.50;2.58;;;15.60;91.20;;;;;;7369695;19;20022;-83
2023/01/06 11:39:03;;;;;;;10.70;3.33;;;15.70;91.10;;;;;;7369655;19;20014;-83
2023/01/06 11:41:37;;;;;;;6.60;2.50;;;15.70;91.00;;;;;;7366760;19;20061;-82
2023/01/06 11:44:11;;;;;;;9.27;2.70;;;15.80;90.80;;;;;;7387665;19;20019;-77
2023/01/06 11:46:48;;;;;;;5.95;2.67;;;15.80;90.80;;;;;;7366046;19;20031;-80
2023/01/06 11:49:21;;;;;;;6.57;3.38;;;15.90;90.60;;;;;;7365212;19;20377;-77
2023/01/06 11:51:51;;;;;;;7.22;2.88;;;16.00;90.70;;;;;;7364888;19;20322;-78
2023/01/06 11:54:30;;;;;;;5.78;2.70;;;16.00;90.50;;;;;;7362550;19;20031;-78
2023/01/06 11:57:01;;;;;;;5.47;2.55;;;15.90;90.50;;;;;;7365889;19;20023;-78
2023/01/06 11:59:33;;;;;;;7.30;2.88;;;15.80;90.40;;;;;;7363936;19;20797;-78
2023/01/06 12:02:02;;;;;;;6.82;2.65;;;15.90;90.50;;;;;;7383800;19;20085;-78
2023/01/06 12:04:37;;;;;;;6.20;2.63;;;15.60;90.80;;;;;;7368734;19;20130;-78
2023/01/06 12:07:15;;;;;;;4.60;2.80;;;15.70;90.90;;;;;;7364075;19;20082;-79
2023/01/06 12:09:49;;;;;;;8.65;2.78;;;15.80;90.80;;;;;;7364090;19;20011;-79
2023/01/06 12:12:22;;;;;;;10.40;3.00;;;15.80;90.60;;;;;;7364681;19;20011;-77
2023/01/06 12:14:51;;;;;;;9.30;3.20;;;15.70;90.70;;;;;;7366582;19;20014;-79
2023/01/06 12:17:28;;;;;;;8.65;2.55;;;15.80;90.70;;;;;;7362973;19;20019;-78
2023/01/06 12:20:00;;;;;;;7.78;2.85;;;15.70;90.60;;;;;;7385446;19;20035;-80
2023/01/06 12:22:38;;;;;;;11.63;3.30;;;15.60;90.70;;;;;;7364735;19;20090;-80
2023/01/06 12:25:16;;;;;;;4.22;2.42;;;15.40;91.00;;;;;;7369887;19;20015;-79
2023/01/06 12:27:50;;;;;;;4.22;2.75;;;15.50;90.90;;;;;;7372944;19;20006;-80
2023/01/06 12:30:25;;;;;;;6.90;2.70;;;15.40;91.20;;;;;;7369953;19;20038;-80
2023/01/06 12:32:57;;;;;;;5.10;2.95;;;15.30;91.50;;;;;;7370812;19;20027;-80
2023/01/06 12:35:29;;;;;;;7.28;2.88;;;15.50;91.20;;;;;;7372516;19;20011;-80
2023/01/06 12:38:02;;;;;;;5.40;2.90;;;15.60;91.00;;;;;;7393706;19;20337;-80
2023/01/06 12:40:45;;;;;;;5.53;2.80;;;15.70;90.80;;;;;;7370431;19;20010;-80
2023/01/06 12:43:18;;;;;;;6.03;2.90;;;15.60;90.70;;;;;;7370262;19;20498;-80
2023/01/06 12:45:58;;;;;;;8.80;2.60;;;15.70;90.70;;;;;;7371030;19;20133;-79
2023/01/06 12:48:37;;;;;;;8.93;3.28;;;15.70;90.70;;;;;;7372629;19;20030;-82
2023/01/06 12:51:12;;;;;;;8.25;2.92;;;15.80;90.60;;;;;;7374229;19;20022;-78
2023/01/06 12:53:45;;;;;;;6.95;2.65;;;15.80;90.50;;;;;;7365539;19;20037;-79
2023/01/06 12:56:36;;;;;;;5.18;2.70;;;15.70;90.50;;;;;;7389333;19;20022;-78
2023/01/06 12:59:16;;;;;;;4.67;2.80;;;15.80;90.60;;;;;;7393545;19;20026;-78
2023/01/06 13:01:50;;;;;;;5.78;2.85;;;15.90;90.80;;;;;;7370957;19;20311;-79
2023/01/06 13:04:54;;;;;;;7.25;3.55;;;15.90;90.20;;;;;;7370927;19;20014;-79
2023/01/06 13:07:36;;;;;;;7.20;2.58;;;15.90;90.30;;;;;;7370547;19;20060;-79
2023/01/06 13:10:09;;;;;;;;;;;15.60;90.60;;;;;;7370556;19;20563;-79
2023/01/06 13:12:55;;;;;;;5.40;2.25;;;15.80;90.60;;;;;;7371203;19;19918;-79
2023/01/06 13:15:28;;;;;;;4.22;2.60;;;15.90;90.40;;;;;;7370563;19;20352;-79
2023/01/06 13:18:07;;;;;;;5.70;2.53;;;15.80;90.40;;;;;;7370922;19;20015;-79
2023/01/06 13:20:42;;;;;;;5.28;2.20;;;15.90;90.40;;;;;;7372206;19;20033;-80
2023/01/06 13:23:40;;;;;;;6.88;2.55;;;16.00;90.30;;;;;;7389961;19;20073;-79
2023/01/06 13:26:43;;;;;;;6.93;2.28;;;16.00;90.20;;;;;;7369334;19;20014;-79